createdAt,value
2019-05-11T00:02:28.577Z,99.90
2019-05-11T00:04:58.547Z,99.90
2019-05-11T00:07:28.649Z,99.90
2019-05-11T00:09:58.771Z,99.90
2019-05-11T00:12:28.911Z,99.90
2019-05-11T00:14:58.743Z,99.90
2019-05-11T00:17:28.982Z,99.90
2019-05-11T00:19:58.826Z,99.90
2019-05-11T00:22:28.654Z,99.90
2019-05-11T00:24:58.571Z,99.90
2019-05-11T00:27:28.611Z,99.90
2019-05-11T00:29:58.528Z,99.90
2019-05-11T00:32:29.057Z,99.90
2019-05-11T00:34:59.115Z,99.90
2019-05-11T00:37:29.121Z,99.90
2019-05-11T00:40:13.348Z,99.90
2019-05-11T00:42:31.087Z,99.90
2019-05-11T00:45:00.939Z,99.90
2019-05-11T00:47:31.867Z,99.90
2019-05-11T00:50:08.864Z,99.90
2019-05-11T00:52:38.992Z,99.90
2019-05-11T00:55:09.108Z,99.90
2019-05-11T00:57:39.036Z,99.90
2019-05-11T01:00:10.175Z,99.90
2019-05-11T01:02:39.955Z,99.90
2019-05-11T01:05:10.593Z,99.90
2019-05-11T01:07:40.343Z,99.90
2019-05-11T01:10:23.813Z,99.90
2019-05-11T01:12:43.885Z,99.90
2019-05-11T01:15:14.072Z,99.90
2019-05-11T01:17:43.863Z,99.90
2019-05-11T01:20:18.463Z,99.90
2019-05-11T01:22:47.520Z,99.90
2019-05-11T01:25:18.240Z,99.90
2019-05-11T01:27:48.723Z,99.90
2019-05-11T01:30:18.696Z,99.90
2019-05-11T01:32:48.496Z,99.90
2019-05-11T01:35:18.440Z,99.90
2019-05-11T01:37:48.184Z,99.90
2019-05-11T01:40:18.719Z,99.90
2019-05-11T01:42:48.550Z,99.90
2019-05-11T01:45:18.336Z,99.90
2019-05-11T01:47:48.142Z,99.90
2019-05-11T01:50:17.981Z,99.90
2019-05-11T01:52:48.021Z,99.90
2019-05-11T01:55:18.146Z,99.90
2019-05-11T01:57:48.293Z,99.90
2019-05-11T02:00:18.180Z,99.90
2019-05-11T02:02:47.977Z,99.90
2019-05-11T02:05:30.759Z,99.90
2019-05-11T02:08:02.117Z,99.90
2019-05-11T02:10:32.988Z,99.90
2019-05-11T02:13:02.874Z,99.90
2019-05-11T02:15:32.658Z,99.90
2019-05-11T02:18:02.611Z,99.90
2019-05-11T02:20:32.689Z,99.90
2019-05-11T02:23:02.576Z,99.90
2019-05-11T02:25:33.892Z,99.90
2019-05-11T02:28:04.831Z,99.90
2019-05-11T02:30:34.613Z,99.90
2019-05-11T02:33:05.279Z,99.90
2019-05-11T02:35:35.096Z,99.90
2019-05-11T02:38:04.892Z,99.90
2019-05-11T02:40:35.539Z,99.90
2019-05-11T02:43:05.350Z,99.90
2019-05-11T02:45:40.672Z,99.90
2019-05-11T02:48:10.570Z,99.90
2019-05-11T02:50:41.040Z,99.90
2019-05-11T02:53:11.564Z,99.90
2019-05-11T02:55:41.371Z,99.90
2019-05-11T02:58:11.333Z,99.90
2019-05-11T03:00:43.846Z,99.90
2019-05-11T03:03:13.657Z,99.90
2019-05-11T03:05:44.302Z,99.90
2019-05-11T03:08:14.181Z,99.90
2019-05-11T03:10:43.973Z,99.90
2019-05-11T03:13:14.290Z,99.90
2019-05-11T03:15:44.069Z,99.90
2019-05-11T03:18:13.849Z,99.90
2019-05-11T03:20:43.987Z,99.90
2019-05-11T03:23:13.789Z,99.90
2019-05-11T03:25:43.579Z,99.90
2019-05-11T03:28:14.044Z,99.90
2019-05-11T03:30:43.923Z,99.90
2019-05-11T03:33:13.710Z,99.90
2019-05-11T03:35:44.029Z,99.90
2019-05-11T03:38:13.865Z,99.90
2019-05-11T03:40:44.517Z,99.90
2019-05-11T03:43:14.338Z,99.90
2019-05-11T03:45:44.116Z,99.90
2019-05-11T03:48:14.536Z,99.90
2019-05-11T03:50:44.368Z,99.90
2019-05-11T03:53:14.156Z,99.90
2019-05-11T03:55:44.389Z,99.90
2019-05-11T03:58:14.259Z,99.90
2019-05-11T04:00:44.063Z,99.90
2019-05-11T04:03:14.325Z,99.90
2019-05-11T04:05:44.219Z,99.90
2019-05-11T04:08:14.016Z,99.90
2019-05-11T04:10:44.144Z,99.90
2019-05-11T04:13:14.067Z,99.90
2019-05-11T04:15:43.910Z,99.90
2019-05-11T04:18:14.038Z,99.90
2019-05-11T04:20:43.871Z,99.90
2019-05-11T04:23:13.656Z,99.90
2019-05-11T04:25:44.447Z,99.90
2019-05-11T04:28:14.387Z,99.90
2019-05-11T04:30:44.415Z,99.90
2019-05-11T04:33:14.198Z,99.90
2019-05-11T04:35:44.055Z,99.90
2019-05-11T04:38:14.250Z,99.90
2019-05-11T04:40:44.050Z,99.90
2019-05-11T04:43:13.875Z,99.90
2019-05-11T04:45:44.234Z,99.90
2019-05-11T04:48:14.188Z,99.90
2019-05-11T04:50:44.084Z,99.90
2019-05-11T04:53:13.950Z,99.90
2019-05-11T04:55:43.763Z,99.90
2019-05-11T04:58:13.572Z,99.90
2019-05-11T05:00:43.925Z,99.90
2019-05-11T05:03:13.696Z,99.90
2019-05-11T05:05:43.519Z,99.90
2019-05-11T05:08:13.978Z,99.90
2019-05-11T05:10:43.855Z,99.90
2019-05-11T05:13:13.719Z,99.90
2019-05-11T05:15:43.511Z,99.90
2019-05-11T05:18:13.472Z,99.90
2019-05-11T05:20:49.104Z,99.90
2019-05-11T05:23:18.932Z,99.90
2019-05-11T05:25:48.697Z,99.90
2019-05-11T05:28:23.226Z,99.90
2019-05-11T05:30:53.641Z,99.90
2019-05-11T05:33:23.447Z,99.90
2019-05-11T05:35:53.256Z,99.90
2019-05-11T05:38:23.389Z,99.90
2019-05-11T05:40:53.188Z,99.90
2019-05-11T05:43:27.879Z,99.90
2019-05-11T05:45:54.432Z,99.90
2019-05-11T05:48:24.574Z,99.90
2019-05-11T05:50:54.409Z,99.90
2019-05-11T05:53:24.202Z,99.90
2019-05-11T05:55:54.603Z,99.90
2019-05-11T05:58:24.578Z,99.90
2019-05-11T06:00:54.897Z,99.90
2019-05-11T06:03:25.991Z,99.90
2019-05-11T06:05:56.044Z,99.90
2019-05-11T06:08:26.374Z,99.90
2019-05-11T06:10:56.186Z,99.90
2019-05-11T06:13:42.783Z,99.90
2019-05-11T06:15:58.509Z,99.90
2019-05-11T06:18:28.620Z,99.90
2019-05-11T06:20:58.669Z,99.90
2019-05-11T06:23:28.746Z,99.90
2019-05-11T06:25:58.606Z,99.90
2019-05-11T06:28:28.419Z,99.90
2019-05-11T06:30:58.595Z,99.90
2019-05-11T06:33:28.384Z,99.90
2019-05-11T06:35:58.268Z,99.90
2019-05-11T06:38:28.619Z,99.90
2019-05-11T06:40:58.407Z,99.90
2019-05-11T06:43:28.247Z,99.90
2019-05-11T06:45:58.415Z,99.90
2019-05-11T06:48:28.449Z,99.90
2019-05-11T06:50:58.364Z,99.90
2019-05-11T06:53:28.710Z,99.90
2019-05-11T06:55:58.578Z,99.90
2019-05-11T06:58:28.490Z,99.90
2019-05-11T07:00:58.268Z,99.90
2019-05-11T07:03:28.143Z,99.90
2019-05-11T07:05:57.962Z,99.90
2019-05-11T07:08:28.036Z,99.90
2019-05-11T07:10:57.820Z,99.90
2019-05-11T07:13:27.652Z,99.90
2019-05-11T07:15:57.980Z,99.90
2019-05-11T07:18:27.769Z,99.90
2019-05-11T07:20:57.597Z,99.90
2019-05-11T07:23:27.806Z,99.90
2019-05-11T07:26:00.141Z,99.90
2019-05-11T07:28:29.086Z,99.90
2019-05-11T07:30:59.161Z,99.90
2019-05-11T07:33:28.975Z,99.90
2019-05-11T07:35:58.818Z,99.90
2019-05-11T07:38:29.211Z,99.90
2019-05-11T07:40:59.086Z,99.90
2019-05-11T07:43:28.947Z,99.90
2019-05-11T07:46:01.436Z,99.90
2019-05-11T07:48:35.317Z,99.90
2019-05-11T07:51:05.765Z,99.90
2019-05-11T07:53:37.923Z,99.90
2019-05-11T07:56:08.313Z,99.90
2019-05-11T07:58:39.086Z,99.90
2019-05-11T08:01:09.563Z,99.90
2019-05-11T08:03:39.869Z,99.90
2019-05-11T08:06:09.678Z,99.90
2019-05-11T08:08:39.866Z,99.90
2019-05-11T08:11:09.765Z,99.90
2019-05-11T08:13:39.565Z,99.90
2019-05-11T08:16:09.530Z,99.90
2019-05-11T08:18:39.548Z,99.90
2019-05-11T08:21:09.491Z,98.70
2019-05-11T08:23:39.412Z,98.30
2019-05-11T08:26:09.292Z,98.10
2019-05-11T08:28:39.722Z,98.00
2019-05-11T08:34:04.907Z,97.50
2019-05-11T08:36:37.679Z,97.50
2019-05-11T08:39:08.065Z,96.60
2019-05-11T08:41:38.617Z,96.90
2019-05-11T08:44:09.269Z,96.30
2019-05-11T08:46:39.834Z,96.10
2019-05-11T08:49:15.347Z,96.60
2019-05-11T08:51:43.971Z,96.50
2019-05-11T08:54:13.768Z,97.20
2019-05-11T08:56:43.610Z,95.30
2019-05-11T08:59:13.838Z,95.80
2019-05-11T09:01:44.749Z,96.40
2019-05-11T09:04:14.830Z,95.10
2019-05-11T09:06:44.653Z,94.60
2019-05-11T09:09:14.892Z,94.70
2019-05-11T09:11:44.810Z,94.80
2019-05-11T09:14:14.596Z,94.40
2019-05-11T09:16:44.411Z,93.70
2019-05-11T09:19:14.311Z,92.70
2019-05-11T09:21:44.414Z,94.00
2019-05-11T09:24:14.244Z,93.70
2019-05-11T09:26:44.410Z,94.50
2019-05-11T09:29:14.436Z,93.50
2019-05-11T09:31:44.222Z,93.80
2019-05-11T09:34:14.501Z,93.00
2019-05-11T09:36:44.288Z,93.30
2019-05-11T09:39:14.168Z,93.20
2019-05-11T09:41:44.060Z,92.60
2019-05-11T09:44:13.869Z,91.90
2019-05-11T09:46:44.249Z,91.00
2019-05-11T09:49:14.275Z,91.10
2019-05-11T09:51:44.727Z,90.70
2019-05-11T09:54:14.591Z,90.60
2019-05-11T09:56:44.431Z,90.20
2019-05-11T09:59:14.218Z,89.80
2019-05-11T10:01:44.088Z,91.00
2019-05-11T10:04:13.905Z,91.00
2019-05-11T10:06:44.795Z,90.70
2019-05-11T10:09:14.622Z,90.30
2019-05-11T10:11:44.444Z,88.90
2019-05-11T10:14:14.677Z,90.30
2019-05-11T10:16:44.535Z,89.40
2019-05-11T10:19:14.398Z,89.10
2019-05-11T10:21:44.387Z,89.30
2019-05-11T10:24:14.167Z,87.70
2019-05-11T10:26:44.066Z,88.00
2019-05-11T10:29:13.863Z,88.90
2019-05-11T10:31:43.644Z,90.30
2019-05-11T10:34:13.472Z,88.80
2019-05-11T10:36:43.494Z,90.20
2019-05-11T10:39:13.354Z,87.00
2019-05-11T10:41:43.539Z,81.50
2019-05-11T10:44:13.335Z,74.50
2019-05-11T10:46:43.116Z,65.00
2019-05-11T10:49:13.288Z,55.10
2019-05-11T10:51:43.200Z,54.80
2019-05-11T10:54:13.310Z,56.30
2019-05-11T10:56:43.390Z,51.50
2019-05-11T10:59:15.579Z,47.10
2019-05-11T11:01:44.615Z,48.40
2019-05-11T11:04:14.890Z,47.10
2019-05-11T11:06:45.824Z,50.90
2019-05-11T11:09:17.750Z,55.70
2019-05-11T11:11:48.850Z,62.50
2019-05-11T11:14:19.137Z,71.30
2019-05-11T11:16:48.942Z,69.10
2019-05-11T11:19:20.658Z,72.10
2019-05-11T11:21:50.475Z,74.30
2019-05-11T11:24:20.672Z,75.40
2019-05-11T11:26:50.569Z,79.40
2019-05-11T11:29:20.351Z,84.00
2019-05-11T11:31:50.341Z,88.40
2019-05-11T11:34:20.159Z,91.00
2019-05-11T11:36:50.196Z,92.80
2019-05-11T11:39:20.019Z,94.60
2019-05-11T11:41:49.849Z,96.10
2019-05-11T11:44:20.086Z,97.90
2019-05-11T11:46:54.986Z,99.40
2019-05-11T11:49:21.327Z,99.90
2019-05-11T11:51:51.302Z,99.90
2019-05-11T11:54:21.448Z,99.90
2019-05-11T11:56:51.271Z,99.90
2019-05-11T11:59:21.067Z,99.90
2019-05-11T12:01:51.545Z,99.90
2019-05-11T12:04:22.120Z,99.90
2019-05-11T12:06:52.223Z,99.90
2019-05-11T12:09:22.143Z,99.90
2019-05-11T12:11:52.188Z,99.90
2019-05-11T12:14:22.052Z,96.60
2019-05-11T12:17:03.872Z,94.20
2019-05-11T12:19:23.906Z,87.00
2019-05-11T12:21:54.653Z,81.30
2019-05-11T12:24:24.427Z,80.50
2019-05-11T12:26:54.263Z,73.90
2019-05-11T12:29:24.044Z,70.30
2019-05-11T12:31:54.095Z,63.40
2019-05-11T12:34:28.303Z,65.70
2019-05-11T12:36:58.244Z,71.20
2019-05-11T12:39:28.714Z,79.30
2019-05-11T12:41:58.537Z,88.00
2019-05-11T12:44:28.572Z,91.80
2019-05-11T12:46:58.536Z,92.70
2019-05-11T12:49:28.996Z,96.50
2019-05-11T12:51:59.499Z,93.90
2019-05-11T12:54:29.915Z,95.80
2019-05-11T12:56:59.769Z,99.10
2019-05-11T12:59:30.073Z,99.90
2019-05-11T13:02:08.197Z,99.90
2019-05-11T13:04:38.484Z,99.90
2019-05-11T13:07:08.859Z,99.90
2019-05-11T13:09:38.758Z,99.90
2019-05-11T13:12:08.562Z,99.30
2019-05-11T13:14:38.795Z,99.40
2019-05-11T13:17:08.630Z,99.90
2019-05-11T13:19:38.673Z,97.30
2019-05-11T13:22:08.629Z,96.90
2019-05-11T13:24:38.563Z,95.90
2019-05-11T13:27:09.284Z,96.30
2019-05-11T13:29:39.434Z,95.40
2019-05-11T13:32:09.770Z,96.10
2019-05-11T13:34:40.898Z,97.20
2019-05-11T13:37:11.725Z,97.70
2019-05-11T13:39:41.526Z,98.50
2019-05-11T13:42:12.331Z,99.80
2019-05-11T13:44:42.156Z,99.90
2019-05-11T13:47:11.938Z,99.90
2019-05-11T13:49:42.267Z,99.90
2019-05-11T13:52:12.075Z,99.90
2019-05-11T13:54:41.874Z,99.90
2019-05-11T13:57:12.034Z,99.90
2019-05-11T13:59:41.853Z,99.90
2019-05-11T14:02:11.721Z,99.90
2019-05-11T14:04:41.907Z,99.90
2019-05-11T14:07:11.732Z,99.90
2019-05-11T14:09:41.595Z,99.90
2019-05-11T14:12:11.885Z,99.90
2019-05-11T14:14:41.730Z,99.90
2019-05-11T14:17:12.682Z,99.90
2019-05-11T14:19:42.522Z,99.20
2019-05-11T14:22:12.303Z,97.30
2019-05-11T14:24:42.100Z,99.20
2019-05-11T14:27:12.202Z,97.00
2019-05-11T14:29:42.102Z,98.50
2019-05-11T14:32:11.891Z,98.10
2019-05-11T14:34:42.606Z,92.40
2019-05-11T14:37:12.566Z,95.30
2019-05-11T14:39:42.625Z,94.80
2019-05-11T14:42:12.402Z,93.20
2019-05-11T14:44:42.230Z,93.70
2019-05-11T14:47:12.506Z,95.00
2019-05-11T14:49:42.290Z,94.70
2019-05-11T14:52:12.100Z,94.40
2019-05-11T14:54:42.239Z,94.20
2019-05-11T14:57:13.123Z,95.00
2019-05-11T14:59:42.958Z,92.90
2019-05-11T15:02:30.552Z,93.00
2019-05-11T15:05:01.562Z,93.80
2019-05-11T15:07:32.280Z,93.70
2019-05-11T15:10:02.076Z,95.60
2019-05-11T15:12:31.913Z,98.20
2019-05-11T15:15:02.263Z,96.30
2019-05-11T15:17:32.208Z,95.20
2019-05-11T15:20:02.043Z,95.40
2019-05-11T15:22:32.090Z,97.50
2019-05-11T15:25:01.901Z,96.90
2019-05-11T15:27:32.878Z,95.60
2019-05-11T15:30:02.669Z,95.60
2019-05-11T15:32:33.315Z,95.80
2019-05-11T15:35:03.242Z,95.70
2019-05-11T15:37:33.420Z,95.40
2019-05-11T15:40:13.091Z,95.60
2019-05-11T15:42:43.334Z,97.10
2019-05-11T15:45:14.284Z,97.00
2019-05-11T15:47:44.288Z,97.10
2019-05-11T15:50:15.292Z,94.80
2019-05-11T15:52:45.080Z,96.60
2019-05-11T15:55:18.596Z,95.60
2019-05-11T15:57:48.610Z,96.60
2019-05-11T16:00:19.659Z,93.80
2019-05-11T16:02:49.485Z,95.00
2019-05-11T16:05:19.525Z,96.50
2019-05-11T16:07:49.615Z,95.90
2019-05-11T16:10:19.479Z,94.90
2019-05-11T16:12:49.281Z,94.10
2019-05-11T16:15:19.952Z,93.40
2019-05-11T16:17:50.221Z,93.60
2019-05-11T16:20:20.017Z,94.30
2019-05-11T16:22:49.790Z,94.30
2019-05-11T16:25:20.292Z,94.20
2019-05-11T16:27:50.426Z,92.70
2019-05-11T16:30:21.591Z,94.00
2019-05-11T16:32:51.857Z,93.50
2019-05-11T16:35:21.630Z,93.10
2019-05-11T16:37:51.716Z,94.10
2019-05-11T16:40:22.290Z,95.00
2019-05-11T16:42:52.153Z,94.60
2019-05-11T16:45:24.046Z,94.80
2019-05-11T16:47:54.011Z,95.10
2019-05-11T16:50:24.218Z,95.00
2019-05-11T16:52:54.005Z,95.60
2019-05-11T16:55:23.901Z,95.50
2019-05-11T16:57:55.474Z,95.30
2019-05-11T17:00:25.323Z,95.20
2019-05-11T17:02:57.528Z,96.60
2019-05-11T17:05:29.909Z,97.60
2019-05-11T17:07:58.743Z,97.70
2019-05-11T17:10:28.675Z,96.80
2019-05-11T17:12:59.253Z,96.30
2019-05-11T17:15:29.959Z,95.60
2019-05-11T17:18:00.150Z,95.90
2019-05-11T17:20:29.939Z,96.10
2019-05-11T17:23:00.697Z,97.00
2019-05-11T17:25:30.511Z,96.10
2019-05-11T17:28:00.590Z,96.70
2019-05-11T17:30:30.609Z,97.00
2019-05-11T17:33:00.478Z,97.10
2019-05-11T17:35:30.422Z,97.70
2019-05-11T17:38:00.739Z,97.40
2019-05-11T17:40:32.754Z,96.50
2019-05-11T17:43:02.541Z,96.60
2019-05-11T17:45:33.165Z,96.50
2019-05-11T17:48:03.062Z,95.10
2019-05-11T17:50:32.868Z,96.30
2019-05-11T17:53:03.155Z,95.10
2019-05-11T17:55:33.953Z,95.30
2019-05-11T17:58:05.787Z,96.30
2019-05-11T18:00:35.718Z,95.70
2019-05-11T18:03:10.210Z,95.10
2019-05-11T18:05:37.927Z,96.50
2019-05-11T18:08:08.801Z,95.50
2019-05-11T18:10:38.795Z,96.20
2019-05-11T18:13:09.693Z,95.90
2019-05-11T18:15:40.227Z,95.80
2019-05-11T18:18:10.281Z,97.00
2019-05-11T18:20:40.504Z,98.00
2019-05-11T18:23:10.303Z,98.40
2019-05-11T18:25:41.053Z,98.10
2019-05-11T18:28:14.214Z,98.70
2019-05-11T18:30:43.542Z,99.30
2019-05-11T18:33:13.401Z,99.90
2019-05-11T18:35:43.170Z,99.90
2019-05-11T18:38:13.155Z,99.90
2019-05-11T18:40:42.980Z,99.90
2019-05-11T18:43:12.883Z,99.90
2019-05-11T18:45:42.694Z,99.90
2019-05-11T18:48:12.948Z,99.90
2019-05-11T18:50:43.682Z,99.90
2019-05-11T18:53:13.486Z,99.90
2019-05-11T18:55:43.439Z,99.90
2019-05-11T18:58:13.311Z,99.90
2019-05-11T19:00:43.258Z,99.90
2019-05-11T19:03:13.127Z,99.90
2019-05-11T19:05:43.008Z,99.90
2019-05-11T19:08:13.178Z,99.90
2019-05-11T19:10:43.060Z,99.90
2019-05-11T19:13:13.367Z,99.90
2019-05-11T19:15:44.162Z,99.90
2019-05-11T19:18:14.096Z,99.90
2019-05-11T19:20:46.099Z,99.90
2019-05-11T19:23:15.327Z,99.90
2019-05-11T19:25:47.864Z,99.90
2019-05-11T19:28:18.773Z,99.90
2019-05-11T19:30:49.260Z,99.90
2019-05-11T19:33:19.261Z,99.90
2019-05-11T19:35:49.383Z,99.90
2019-05-11T19:38:20.366Z,99.90
2019-05-11T19:40:51.070Z,99.90
2019-05-11T19:43:20.849Z,99.90
2019-05-11T19:45:50.636Z,99.70
2019-05-11T19:48:21.486Z,99.30
2019-05-11T19:51:03.768Z,99.80
2019-05-11T19:53:22.702Z,99.90
2019-05-11T19:55:52.524Z,99.90
2019-05-11T19:58:23.551Z,99.90
2019-05-11T20:00:53.536Z,99.90
2019-05-11T20:03:23.367Z,99.90
2019-05-11T20:05:53.899Z,99.90
2019-05-11T20:08:24.792Z,99.90
2019-05-11T20:10:54.622Z,99.90
2019-05-11T20:13:24.707Z,99.90
2019-05-11T20:15:55.187Z,99.90
2019-05-11T20:18:25.147Z,99.90
2019-05-11T20:20:55.310Z,99.90
2019-05-11T20:23:25.287Z,99.90
2019-05-11T20:25:58.072Z,99.90
2019-05-11T20:28:28.516Z,99.90
2019-05-11T20:30:58.872Z,99.90
2019-05-11T20:33:28.828Z,99.90
2019-05-11T20:35:59.360Z,99.90
2019-05-11T20:38:29.928Z,99.90
2019-05-11T20:40:59.751Z,99.90
2019-05-11T20:43:30.504Z,99.90
2019-05-11T20:46:00.356Z,99.90
2019-05-11T20:48:30.376Z,99.90
2019-05-11T20:51:00.475Z,99.90
2019-05-11T20:53:31.315Z,99.90
2019-05-11T20:56:01.559Z,99.90
2019-05-11T20:58:34.044Z,99.90
2019-05-11T21:01:03.895Z,99.90
2019-05-11T21:03:33.725Z,99.90
2019-05-11T21:06:03.596Z,99.90
2019-05-11T21:08:34.475Z,99.90
2019-05-11T21:11:04.285Z,99.90
2019-05-11T21:13:34.139Z,99.90
2019-05-11T21:16:04.112Z,99.90
2019-05-11T21:18:39.692Z,99.90
2019-05-11T21:21:09.493Z,99.90
2019-05-11T21:23:40.726Z,99.90
2019-05-11T21:26:10.799Z,99.90
2019-05-11T21:28:41.194Z,99.90
2019-05-11T21:31:10.991Z,99.90
2019-05-11T21:33:40.834Z,99.90
2019-05-11T21:36:10.610Z,99.90
2019-05-11T21:38:41.275Z,99.90
2019-05-11T21:41:11.104Z,99.90
2019-05-11T21:43:42.037Z,99.90
2019-05-11T21:46:12.873Z,99.90
2019-05-11T21:48:42.896Z,99.90
2019-05-11T21:51:12.750Z,99.90
2019-05-11T21:53:42.706Z,99.90
2019-05-11T21:56:12.954Z,99.90
2019-05-11T21:58:42.983Z,99.90
2019-05-11T22:01:12.841Z,99.90
2019-05-11T22:03:42.667Z,99.90
2019-05-11T22:06:12.893Z,99.90
2019-05-11T22:08:42.749Z,99.90
2019-05-11T22:11:14.235Z,99.90
2019-05-11T22:13:44.319Z,99.90
2019-05-11T22:16:14.154Z,99.90
2019-05-11T22:18:44.513Z,99.90
2019-05-11T22:21:14.306Z,99.90
2019-05-11T22:23:44.105Z,99.90
2019-05-11T22:26:14.779Z,99.90
2019-05-11T22:28:44.820Z,99.90
2019-05-11T22:31:14.591Z,99.90
2019-05-11T22:33:44.964Z,99.90
2019-05-11T22:36:14.744Z,99.90
2019-05-11T22:38:48.160Z,99.90
2019-05-11T22:41:18.234Z,99.90
2019-05-11T22:43:48.632Z,99.90
2019-05-11T22:46:18.569Z,99.90
2019-05-11T22:48:48.979Z,99.90
2019-05-11T22:51:19.059Z,99.90
2019-05-11T22:53:50.432Z,99.90
2019-05-11T22:56:20.308Z,99.90
2019-05-11T22:58:50.110Z,99.90
2019-05-11T23:01:20.549Z,99.90
2019-05-11T23:03:50.541Z,99.90
2019-05-11T23:06:20.291Z,99.90
2019-05-11T23:08:53.991Z,99.90
2019-05-11T23:11:22.938Z,99.90
2019-05-11T23:13:52.850Z,99.90
2019-05-11T23:16:22.813Z,99.90
2019-05-11T23:18:53.028Z,99.90
2019-05-11T23:21:22.825Z,99.90
2019-05-11T23:23:52.652Z,99.90
2019-05-11T23:26:22.666Z,99.90
2019-05-11T23:28:52.793Z,99.90
2019-05-11T23:31:22.663Z,99.90
2019-05-11T23:33:52.483Z,99.90
2019-05-11T23:36:22.504Z,99.90
2019-05-11T23:38:52.300Z,99.90
2019-05-11T23:41:24.966Z,99.90
2019-05-11T23:43:54.111Z,99.90
2019-05-11T23:46:23.953Z,99.90
2019-05-11T23:48:54.237Z,99.90
2019-05-11T23:51:24.020Z,99.90
2019-05-11T23:53:53.812Z,99.90
2019-05-11T23:56:24.109Z,99.90
2019-05-11T23:58:53.972Z,99.90
